AirNav   Everest Fuels
 
 915 users online  

PS44 Operations Center Heliport
Bellwood, Pennsylvania, USA

GOING TO BELLWOOD?


FAA INFORMATION EFFECTIVE 02 JANUARY 2020

Location

FAA Identifier: PS44
Lat/Long: 40-36-41.2370N 078-19-32.0510W
40-36.687283N 078-19.534183W
40.6114547,-78.3255697
(estimated)
Elevation: 1035 ft. / 315 m (estimated)
Variation: 09W (1985)
Time zone: UTC -5 (UTC -4 during Daylight Saving Time)
Zip code: 16617

Heliport Operations

Heliport use: Private use. Permission required prior to landing
Activation date: 07/1985
Control tower: no
ARTCC: CLEVELAND CENTER
FSS: ALTOONA FLIGHT SERVICE STATION
Attendance: UNATNDD
Wind indicator: yes
Segmented circle: no

Heliport Communications

WX ASOS at AOO (19 nm S): 127.125 (814-793-9655)
WX AWOS-3 at PSB (20 nm NE): 127.525 (814-343-4531)

Nearby radio navigation aids

VOR radial/distance  VOR name  Freq  Var
RECr088/19.6REVLOC VOR/DME110.6009W
PSBr230/23.7PHILIPSBURG VORTAC115.5010W
JSTr059/29.2JOHNSTOWN VOR/DME113.0006W
ETGr203/37.1KEATING VORTAC116.0010W

Heliport Services

Runway Information

Helipad H1

Dimensions: 30 x 30 ft. / 9 x 9 m
Surface: turf
Traffic pattern: leftleft

Heliport Ownership and Management from official FAA records

Ownership: Privately-owned
Owner: MID-STATE BANK & TRUST CO.
1130 - 12TH AVENUE
ALTOONA, PA 16603
Phone 814-742-6791
Manager: R. BLAINE LOCKE
1130 - 12TH AVENUE
ALTOONA, PA 16603

Additional Remarks

FOR CD CTC JOHNSTOWN APCH AT 814-532-5960, WHEN APCH CLSD CTC CLEVELAND ARTCC AT 440-774-0234.

Instrument Procedures

There are no published instrument procedures at PS44.

Some nearby airports with instrument procedures:

KAOO - Altoona-Blair County Airport (19 nm S)
KPSB - Mid-State Airport (20 nm NE)
9G8 - Ebensburg Airport (22 nm SW)
KUNV - University Park Airport (26 nm NE)
KFIG - Clearfield-Lawrence Airport (27 nm N)
 
Loc | Ops | Rwys | IFR | FBO | Links
Com | Nav | Svcs | Stats | Notes
Area around PS44 (Operations Center Heliport)
 
Road maps at: MapQuest Bing Google
 
Aerial photo
No photo
 
Sectional chart

 
Airport distance calculator
Flying to Operations Center Heliport? Find the distance to fly.

From to PS44

Sunrise and sunset
Times for 21-Jan-2020
 Local
(UTC-5)
 Zulu
(UTC)
Morning civil twilight07:0312:03
Sunrise07:3312:33
Sunset17:1622:16
Evening civil twilight17:4622:46

Current date and time
Zulu (UTC)  22-Jan-2020 03:13:08
Local (UTC-5)  21-Jan-2020 22:13:08
 
METAR
KAOO 
19nm S 
220253Z AUTO 19003KT CLR M09/M13 A3044 RMK AO2 SLP336 T10891133 50001 $
KUNV 
27nm NE 
220253Z 31005KT 10SM SKC M06/M11 A3044
KFIG 
27nm N 
220254Z AUTO 26004KT 10SM CLR M08/M13 A3043 RMK AO2 SLP332 T10781128 58001
KJST 
29nm SW 
220254Z AUTO 28005KT 10SM FEW011 M10/M13 A3038 RMK AO2 SLP332 T11001133 50001
KRVL 
32nm E 
220255Z AUTO 00000KT 10SM CLR M05/M10 A3047 RMK AO2
KHMZ 
33nm S 
220250Z AUTO 00000KT 10SM CLR M08/M12 A3047 RMK AO2 T10851121
KIDI 
35nm W 
220255Z AUTO 00000KT 10SM CLR M08/M11 A3050 RMK A01
TAF
KAOO 
19nm S 
212151Z 2122/2218 32010KT P6SM OVC025 FM212300 24003KT P6SM FEW025 SCT250
NOTAMs
Click for the latest NOTAMs
NOTAMs are issued by the DoD/FAA and will open in a separate window not controlled by AirNav.

 

 
 

Would you like to see your business listed on this page?

 If your business provides an interesting product or service to pilots, flight crews, aircraft, or users of the Operations Center Heliport, you should consider listing it here.  To start the listing process, click on the button below
 
Add a business
 

Other Pages about Operations Center Heliport

Update a link
 
Copyright © AirNav, LLC. All rights reserved. Privacy Policy  Contact